^^
Station Historical Data
Daily Summary for May 3, 2017 Units:  Both    English   Metric
« Previous Day
Next Day »
Daily Weekly Monthly Yearly Custom
  High: Low: Average:
Temperature: 75.0 °F /  23.9 °C 48.6 °F /  9.2 °C 61.4 °F /  16.3 °C
Dew Point: 53.6 °F /  12 °C 45.1 °F /  7.3 °C 47.4 °F /  8.6 °C
Humidity: 92% 35% 63%
Wind Speed: 8.9mph /  14.3km/h - 1.2mph /  1.9km/h
Wind Gust: 13.0mph /  20.9km/h - -
Wind- - ENE
Pressure: 30.08 in /  1018.5 hPa 29.96 in /  1014.4 hPa -
Precipitation: 0.00 in /  0 mm    
Historical Graphs
 
 
Tabular Data for May 3, 2017
Time Temperature Dew Point Pressure Wind Wind Speed Wind Gust Humidity Rainfall Rate (Hourly) solar Conditions
00:03 56.8 °F /  13.8 °C 46.8 °F /  8.2 °C 30.07in /  1018.2hPa Calm   3.0mph /  4.8km/h 69% 0.00in /  0mm 0.0 W/m2
00:09 57.0 °F /  13.9 °C 46.6 °F /  8.1 °C 30.07in /  1018.2hPa Calm     68% 0.00in /  0mm 0.0 W/m2
00:15 57.0 °F /  13.9 °C 46.6 °F /  8.1 °C 30.07in /  1018.2hPa Calm     68% 0.00in /  0mm 0.0 W/m2
00:21 57.2 °F /  14 °C 46.8 °F /  8.2 °C 30.07in /  1018.2hPa Calm     68% 0.00in /  0mm 0.0 W/m2
00:27 57.0 °F /  13.9 °C 46.6 °F /  8.1 °C 30.07in /  1018.2hPa Calm     68% 0.00in /  0mm 0.0 W/m2
00:33 56.8 °F /  13.8 °C 46.8 °F /  8.2 °C 30.07in /  1018.2hPa Calm     69% 0.00in /  0mm 0.0 W/m2
00:40 56.5 °F /  13.6 °C 46.8 °F /  8.2 °C 30.07in /  1018.2hPa Calm     70% 0.00in /  0mm 0.0 W/m2
00:46 56.1 °F /  13.4 °C 46.8 °F /  8.2 °C 30.07in /  1018.2hPa Calm     71% 0.00in /  0mm 0.0 W/m2
00:52 55.8 °F /  13.2 °C 46.6 °F /  8.1 °C 30.07in /  1018.2hPa Calm     71% 0.00in /  0mm 0.0 W/m2
00:58 55.2 °F /  12.9 °C 46.4 °F /  8 °C 30.07in /  1018.2hPa Calm     72% 0.00in /  0mm 0.0 W/m2
01:04 54.9 °F /  12.7 °C 46.4 °F /  8 °C 30.07in /  1018.2hPa Calm     73% 0.00in /  0mm 0.0 W/m2
01:10 54.5 °F /  12.5 °C 46.4 °F /  8 °C 30.07in /  1018.2hPa Calm     74% 0.00in /  0mm 0.0 W/m2
01:17 54.1 °F /  12.3 °C 46.0 °F /  7.8 °C 30.07in /  1018.2hPa Calm     74% 0.00in /  0mm 0.0 W/m2
01:23 53.8 °F /  12.1 °C 46.0 °F /  7.8 °C 30.07in /  1018.2hPa Calm     75% 0.00in /  0mm 0.0 W/m2
01:29 53.4 °F /  11.9 °C 46.0 °F /  7.8 °C 30.07in /  1018.2hPa Calm     76% 0.00in /  0mm 0.0 W/m2
01:35 53.1 °F /  11.7 °C 46.0 °F /  7.8 °C 30.06in /  1017.8hPa Calm     77% 0.00in /  0mm 0.0 W/m2
01:41 52.9 °F /  11.6 °C 46.2 °F /  7.9 °C 30.06in /  1017.8hPa Calm     78% 0.00in /  0mm 0.0 W/m2
01:47 52.7 °F /  11.5 °C 46.0 °F /  7.8 °C 30.06in /  1017.8hPa Calm     78% 0.00in /  0mm 0.0 W/m2
01:53 52.5 °F /  11.4 °C 46.2 °F /  7.9 °C 30.06in /  1017.8hPa Calm     79% 0.00in /  0mm 0.0 W/m2
02:00 52.3 °F /  11.3 °C 46.0 °F /  7.8 °C 30.06in /  1017.8hPa Calm     79% 0.00in /  0mm 0.0 W/m2
02:06 52.2 °F /  11.2 °C 45.9 °F /  7.7 °C 30.06in /  1017.8hPa Calm     79% 0.00in /  0mm 0.0 W/m2
02:12 52.0 °F /  11.1 °C 46.0 °F /  7.8 °C 30.06in /  1017.8hPa Calm     80% 0.00in /  0mm 0.0 W/m2
02:18 51.8 °F /  11 °C 45.9 °F /  7.7 °C 30.05in /  1017.5hPa Calm     80% 0.00in /  0mm 0.0 W/m2
02:24 51.6 °F /  10.9 °C 46.0 °F /  7.8 °C 30.05in /  1017.5hPa Calm     81% 0.00in /  0mm 0.0 W/m2
02:30 51.4 °F /  10.8 °C 45.9 °F /  7.7 °C 30.05in /  1017.5hPa Calm     81% 0.00in /  0mm 0.0 W/m2
02:36 51.4 °F /  10.8 °C 45.9 °F /  7.7 °C 30.05in /  1017.5hPa Calm     81% 0.00in /  0mm 0.0 W/m2
02:43 51.3 °F /  10.7 °C 45.7 °F /  7.6 °C 30.05in /  1017.5hPa Calm     81% 0.00in /  0mm 0.0 W/m2
02:49 51.1 °F /  10.6 °C 45.9 °F /  7.7 °C 30.05in /  1017.5hPa Calm     82% 0.00in /  0mm 0.0 W/m2
02:55 51.1 °F /  10.6 °C 45.5 °F /  7.5 °C 30.05in /  1017.5hPa Calm     81% 0.00in /  0mm 0.0 W/m2
03:01 50.7 °F /  10.4 °C 45.1 °F /  7.3 °C 30.05in /  1017.5hPa Calm     81% 0.00in /  0mm 0.0 W/m2
03:07 50.7 °F /  10.4 °C 45.5 °F /  7.5 °C 30.05in /  1017.5hPa Calm     82% 0.00in /  0mm 0.0 W/m2
03:13 50.5 °F /  10.3 °C 45.3 °F /  7.4 °C 30.05in /  1017.5hPa Calm     82% 0.00in /  0mm 0.0 W/m2
03:19 50.4 °F /  10.2 °C 45.3 °F /  7.4 °C 30.05in /  1017.5hPa Calm     83% 0.00in /  0mm 0.0 W/m2
03:25 50.4 °F /  10.2 °C 45.3 °F /  7.4 °C 30.05in /  1017.5hPa Calm     83% 0.00in /  0mm 0.0 W/m2
03:32 50.2 °F /  10.1 °C 45.5 °F /  7.5 °C 30.05in /  1017.5hPa Calm     84% 0.00in /  0mm 0.0 W/m2
03:38 50.2 °F /  10.1 °C 45.9 °F /  7.7 °C 30.05in /  1017.5hPa Calm     85% 0.00in /  0mm 0.0 W/m2
03:44 50.2 °F /  10.1 °C 45.9 °F /  7.7 °C 30.05in /  1017.5hPa Calm     85% 0.00in /  0mm 0.0 W/m2
03:50 50.0 °F /  10 °C 45.7 °F /  7.6 °C 30.05in /  1017.5hPa Calm     85% 0.00in /  0mm 0.0 W/m2
03:56 49.8 °F /  9.9 °C 45.5 °F /  7.5 °C 30.05in /  1017.5hPa Calm     85% 0.00in /  0mm 0.0 W/m2
04:02 50.0 °F /  10 °C 46.0 °F /  7.8 °C 30.04in /  1017.2hPa Calm     86% 0.00in /  0mm 0.0 W/m2
04:08 50.0 °F /  10 °C 46.0 °F /  7.8 °C 30.04in /  1017.2hPa Calm     86% 0.00in /  0mm 0.0 W/m2
04:15 50.4 °F /  10.2 °C 46.4 °F /  8 °C 30.04in /  1017.2hPa Calm     86% 0.00in /  0mm 0.0 W/m2
04:21 50.4 °F /  10.2 °C 46.4 °F /  8 °C 30.04in /  1017.2hPa Calm     86% 0.00in /  0mm 0.0 W/m2
04:27 50.5 °F /  10.3 °C 46.6 °F /  8.1 °C 30.04in /  1017.2hPa Calm     86% 0.00in /  0mm 0.0 W/m2
04:33 50.7 °F /  10.4 °C 46.8 °F /  8.2 °C 30.04in /  1017.2hPa Calm     86% 0.00in /  0mm 0.0 W/m2
04:39 50.7 °F /  10.4 °C 46.4 °F /  8 °C 30.04in /  1017.2hPa Calm     85% 0.00in /  0mm 0.0 W/m2
04:45 50.7 °F /  10.4 °C 46.4 °F /  8 °C 30.04in /  1017.2hPa Calm     85% 0.00in /  0mm 0.0 W/m2
04:52 50.5 °F /  10.3 °C 46.2 °F /  7.9 °C 30.04in /  1017.2hPa Calm     85% 0.00in /  0mm 0.0 W/m2
04:58 50.5 °F /  10.3 °C 46.2 °F /  7.9 °C 30.05in /  1017.5hPa Calm     85% 0.00in /  0mm 0.0 W/m2
05:04 50.4 °F /  10.2 °C 46.0 °F /  7.8 °C 30.05in /  1017.5hPa Calm     85% 0.00in /  0mm 0.0 W/m2
05:10 50.2 °F /  10.1 °C 45.9 °F /  7.7 °C 30.05in /  1017.5hPa Calm     85% 0.00in /  0mm 0.0 W/m2
05:16 50.2 °F /  10.1 °C 46.2 °F /  7.9 °C 30.05in /  1017.5hPa Calm     86% 0.00in /  0mm 0.0 W/m2
05:18 50.0 °F /  10 °C 46.0 °F /  7.8 °C 30.05in /  1017.5hPa Calm     86% 0.00in /  0mm 0.0 W/m2
05:24 49.8 °F /  9.9 °C 45.9 °F /  7.7 °C 30.05in /  1017.5hPa Calm     86% 0.00in /  0mm 0.0 W/m2
05:30 49.6 °F /  9.8 °C 45.7 °F /  7.6 °C 30.05in /  1017.5hPa Calm     86% 0.00in /  0mm 0.0 W/m2
05:36 49.5 °F /  9.7 °C 45.7 °F /  7.6 °C 30.05in /  1017.5hPa Calm     87% 0.00in /  0mm 0.0 W/m2
05:42 49.5 °F /  9.7 °C 45.7 °F /  7.6 °C 30.06in /  1017.8hPa Calm     87% 0.00in /  0mm 0.0 W/m2
05:49 49.3 °F /  9.6 °C 45.5 °F /  7.5 °C 30.06in /  1017.8hPa Calm     87% 0.00in /  0mm 0.0 W/m2
05:55 49.1 °F /  9.5 °C 45.7 °F /  7.6 °C 30.06in /  1017.8hPa Calm     88% 0.00in /  0mm 0.0 W/m2
06:01 48.9 °F /  9.4 °C 45.5 °F /  7.5 °C 30.06in /  1017.8hPa Calm     88% 0.00in /  0mm 0.0 W/m2
06:07 48.9 °F /  9.4 °C 45.5 °F /  7.5 °C 30.06in /  1017.8hPa Calm     88% 0.00in /  0mm 0.0 W/m2
06:13 48.7 °F /  9.3 °C 45.3 °F /  7.4 °C 30.06in /  1017.8hPa Calm     88% 0.00in /  0mm 0.0 W/m2
06:19 48.6 °F /  9.2 °C 45.5 °F /  7.5 °C 30.06in /  1017.8hPa Calm     89% 0.00in /  0mm 5.0 W/m2
06:26 48.6 °F /  9.2 °C 45.5 °F /  7.5 °C 30.06in /  1017.8hPa Calm     89% 0.00in /  0mm 7.0 W/m2
06:32 48.6 °F /  9.2 °C 45.5 °F /  7.5 °C 30.06in /  1017.8hPa Calm     89% 0.00in /  0mm 9.0 W/m2
06:38 48.6 °F /  9.2 °C 45.7 °F /  7.6 °C 30.07in /  1018.2hPa Calm     90% 0.00in /  0mm 11.0 W/m2
06:44 48.9 °F /  9.4 °C 46.4 °F /  8 °C 30.07in /  1018.2hPa Calm     91% 0.00in /  0mm 12.0 W/m2
06:50 49.3 °F /  9.6 °C 46.8 °F /  8.2 °C 30.07in /  1018.2hPa Calm     91% 0.00in /  0mm 12.0 W/m2
06:56 49.6 °F /  9.8 °C 47.5 °F /  8.6 °C 30.07in /  1018.2hPa Calm     92% 0.00in /  0mm 14.0 W/m2
07:02 50.0 °F /  10 °C 47.8 °F /  8.8 °C 30.07in /  1018.2hPa Calm     92% 0.00in /  0mm 14.0 W/m2
07:09 50.4 °F /  10.2 °C 48.2 °F /  9 °C 30.07in /  1018.2hPa Calm     92% 0.00in /  0mm 16.0 W/m2
07:15 50.7 °F /  10.4 °C 48.6 °F /  9.2 °C 30.08in /  1018.5hPa Calm     92% 0.00in /  0mm 18.0 W/m2
07:21 51.3 °F /  10.7 °C 49.1 °F /  9.5 °C 30.08in /  1018.5hPa Calm     92% 0.00in /  0mm 18.0 W/m2
07:27 52.2 °F /  11.2 °C 49.8 °F /  9.9 °C 30.07in /  1018.2hPa Calm     92% 0.00in /  0mm 19.0 W/m2
07:33 52.7 °F /  11.5 °C 50.2 °F /  10.1 °C 30.07in /  1018.2hPa Calm   3.0mph /  4.8km/h 91% 0.00in /  0mm 19.0 W/m2
07:39 53.4 °F /  11.9 °C 50.5 °F /  10.3 °C 30.07in /  1018.2hPa Calm   4.0mph /  6.4km/h 90% 0.00in /  0mm 19.0 W/m2
07:48 54.7 °F /  12.6 °C 50.9 °F /  10.5 °C 30.07in /  1018.2hPa Calm   5.0mph /  8km/h 87% 0.00in /  0mm 21.0 W/m2
07:54 55.8 °F /  13.2 °C 51.3 °F /  10.7 °C 30.07in /  1018.2hPa ENE 4.0mph /  6.4km/h 6.0mph /  9.7km/h 85% 0.00in /  0mm 21.0 W/m2
08:00 56.8 °F /  13.8 °C 51.4 °F /  10.8 °C 30.07in /  1018.2hPa NE 0.9mph /  1.4km/h 5.0mph /  8km/h 82% 0.00in /  0mm 23.0 W/m2
08:06 57.7 °F /  14.3 °C 51.6 °F /  10.9 °C 30.07in /  1018.2hPa ESE 2.9mph /  4.7km/h 4.0mph /  6.4km/h 80% 0.00in /  0mm 23.0 W/m2
08:10 58.3 °F /  14.6 °C 51.8 °F /  11 °C 30.07in /  1018.2hPa Calm   2.0mph /  3.2km/h 79% 0.00in /  0mm 23.0 W/m2
08:16 59.2 °F /  15.1 °C 52.0 °F /  11.1 °C 30.07in /  1018.2hPa NE 4.0mph /  6.4km/h 6.0mph /  9.7km/h 77% 0.00in /  0mm 26.0 W/m2
08:22 60.3 °F /  15.7 °C 52.7 °F /  11.5 °C 30.07in /  1018.2hPa NNE 0.9mph /  1.4km/h 7.0mph /  11.3km/h 76% 0.00in /  0mm 399.0 W/m2
08:28 61.5 °F /  16.4 °C 52.7 °F /  11.5 °C 30.07in /  1018.2hPa NE 6.0mph /  9.7km/h 6.0mph /  9.7km/h 73% 0.00in /  0mm 434.0 W/m2
08:34 63.0 °F /  17.2 °C 53.1 °F /  11.7 °C 30.07in /  1018.2hPa NE 4.0mph /  6.4km/h 7.0mph /  11.3km/h 70% 0.00in /  0mm 469.0 W/m2
08:41 63.9 °F /  17.7 °C 53.1 °F /  11.7 °C 30.07in /  1018.2hPa South 0.9mph /  1.4km/h 6.0mph /  9.7km/h 68% 0.00in /  0mm 504.0 W/m2
08:47 64.8 °F /  18.2 °C 53.1 °F /  11.7 °C 30.07in /  1018.2hPa East 2.0mph /  3.2km/h 7.0mph /  11.3km/h 66% 0.00in /  0mm 522.0 W/m2
08:53 65.7 °F /  18.7 °C 53.6 °F /  12 °C 30.07in /  1018.2hPa NE 4.0mph /  6.4km/h 8.0mph /  12.9km/h 65% 0.00in /  0mm 541.0 W/m2
08:59 66.0 °F /  18.9 °C 53.1 °F /  11.7 °C 30.07in /  1018.2hPa ESE 4.9mph /  7.9km/h 6.0mph /  9.7km/h 63% 0.00in /  0mm 561.0 W/m2
09:05 66.7 °F /  19.3 °C 52.9 °F /  11.6 °C 30.07in /  1018.2hPa SE 0.9mph /  1.4km/h 8.0mph /  12.9km/h 61% 0.00in /  0mm 578.0 W/m2
09:12 66.7 °F /  19.3 °C 53.2 °F /  11.8 °C 30.06in /  1017.8hPa ENE 6.9mph /  11.1km/h 7.0mph /  11.3km/h 62% 0.00in /  0mm 592.0 W/m2
09:17 67.3 °F /  19.6 °C 52.9 °F /  11.6 °C 30.06in /  1017.8hPa East 4.0mph /  6.4km/h 8.0mph /  12.9km/h 60% 0.00in /  0mm 608.0 W/m2
09:30 68.2 °F /  20.1 °C 52.3 °F /  11.3 °C 30.06in /  1017.8hPa ENE 2.0mph /  3.2km/h 7.0mph /  11.3km/h 57% 0.00in /  0mm 643.0 W/m2
09:36 68.5 °F /  20.3 °C 52.7 °F /  11.5 °C 30.06in /  1017.8hPa ESE 2.0mph /  3.2km/h 7.0mph /  11.3km/h 57% 0.00in /  0mm 656.0 W/m2
09:42 69.1 °F /  20.6 °C 51.8 °F /  11 °C 30.06in /  1017.8hPa ENE 2.0mph /  3.2km/h 6.0mph /  9.7km/h 54% 0.00in /  0mm 689.0 W/m2
09:48 69.4 °F /  20.8 °C 51.6 °F /  10.9 °C 30.05in /  1017.5hPa ENE 4.0mph /  6.4km/h 7.0mph /  11.3km/h 53% 0.00in /  0mm 701.0 W/m2
09:54 69.4 °F /  20.8 °C 51.6 °F /  10.9 °C 30.05in /  1017.5hPa NNE 6.9mph /  11.1km/h 7.0mph /  11.3km/h 53% 0.00in /  0mm 728.0 W/m2
10:01 70.0 °F /  21.1 °C 51.1 °F /  10.6 °C 30.05in /  1017.5hPa ENE 4.0mph /  6.4km/h 7.0mph /  11.3km/h 51% 0.00in /  0mm 761.0 W/m2
10:07 70.3 °F /  21.3 °C 49.6 °F /  9.8 °C 30.05in /  1017.5hPa NNE 4.9mph /  7.9km/h 8.0mph /  12.9km/h 48% 0.00in /  0mm 754.0 W/m2
10:13 70.7 °F /  21.5 °C 50.0 °F /  10 °C 30.05in /  1017.5hPa ESE 2.0mph /  3.2km/h 8.0mph /  12.9km/h 48% 0.00in /  0mm 786.0 W/m2
10:19 70.9 °F /  21.6 °C 49.1 °F /  9.5 °C 30.04in /  1017.2hPa NNE 2.0mph /  3.2km/h 7.0mph /  11.3km/h 46% 0.00in /  0mm 821.0 W/m2
10:25 71.1 °F /  21.7 °C 49.3 °F /  9.6 °C 30.04in /  1017.2hPa ENE 4.0mph /  6.4km/h 5.0mph /  8km/h 46% 0.00in /  0mm 846.0 W/m2
10:31 71.2 °F /  21.8 °C 50.5 °F /  10.3 °C 30.04in /  1017.2hPa Calm   5.0mph /  8km/h 48% 0.00in /  0mm 188.0 W/m2
10:37 71.1 °F /  21.7 °C 49.3 °F /  9.6 °C 30.03in /  1016.8hPa NNE 2.0mph /  3.2km/h 6.0mph /  9.7km/h 46% 0.00in /  0mm 146.0 W/m2
11:02 72.5 °F /  22.5 °C 48.7 °F /  9.3 °C 30.03in /  1016.8hPa ENE 2.0mph /  3.2km/h 9.0mph /  14.5km/h 43% 0.00in /  0mm 185.0 W/m2
11:08 72.1 °F /  22.3 °C 48.4 °F /  9.1 °C 30.03in /  1016.8hPa NNE 2.9mph /  4.7km/h 8.0mph /  12.9km/h 43% 0.00in /  0mm 942.0 W/m2
11:14 71.8 °F /  22.1 °C 48.7 °F /  9.3 °C 30.02in /  1016.5hPa ESE 0.9mph /  1.4km/h 7.0mph /  11.3km/h 44% 0.00in /  0mm 949.0 W/m2
11:20 71.1 °F /  21.7 °C 48.6 °F /  9.2 °C 30.02in /  1016.5hPa NNE 0.9mph /  1.4km/h 7.0mph /  11.3km/h 45% 0.00in /  0mm 149.0 W/m2
11:26 70.9 °F /  21.6 °C 48.6 °F /  9.2 °C 30.02in /  1016.5hPa North 6.0mph /  9.7km/h 6.0mph /  9.7km/h 45% 0.00in /  0mm 990.0 W/m2
11:32 71.4 °F /  21.9 °C 48.4 °F /  9.1 °C 30.02in /  1016.5hPa NE 4.0mph /  6.4km/h 8.0mph /  12.9km/h 44% 0.00in /  0mm 1011.0 W/m2
11:38 72.3 °F /  22.4 °C 48.6 °F /  9.2 °C 30.01in /  1016.1hPa NNE 6.9mph /  11.1km/h 7.0mph /  11.3km/h 43% 0.00in /  0mm 947.0 W/m2
11:44 73.2 °F /  22.9 °C 48.7 °F /  9.3 °C 30.01in /  1016.1hPa ENE 6.9mph /  11.1km/h 7.0mph /  11.3km/h 42% 0.00in /  0mm 209.0 W/m2
11:51 73.4 °F /  23 °C 47.7 °F /  8.7 °C 30.01in /  1016.1hPa ENE 6.9mph /  11.1km/h 11.0mph /  17.7km/h 40% 0.00in /  0mm 921.0 W/m2
11:57 73.6 °F /  23.1 °C 48.4 °F /  9.1 °C 30.01in /  1016.1hPa NNE 6.9mph /  11.1km/h 7.0mph /  11.3km/h 41% 0.00in /  0mm 904.0 W/m2
12:03 73.9 °F /  23.3 °C 46.0 °F /  7.8 °C 30.01in /  1016.1hPa NNE 2.0mph /  3.2km/h 7.0mph /  11.3km/h 37% 0.00in /  0mm 944.0 W/m2
12:09 73.8 °F /  23.2 °C 48.0 °F /  8.9 °C 30.01in /  1016.1hPa ESE 2.9mph /  4.7km/h 8.0mph /  12.9km/h 40% 0.00in /  0mm 997.0 W/m2
12:15 73.8 °F /  23.2 °C 48.0 °F /  8.9 °C 30.00in /  1015.8hPa Calm   6.0mph /  9.7km/h 40% 0.00in /  0mm 267.0 W/m2
12:21 73.4 °F /  23 °C 47.7 °F /  8.7 °C 30.00in /  1015.8hPa SSE 0.9mph /  1.4km/h 4.0mph /  6.4km/h 40% 0.00in /  0mm 315.0 W/m2
12:27 72.9 °F /  22.7 °C 47.8 °F /  8.8 °C 30.00in /  1015.8hPa NE 8.9mph /  14.3km/h 9.0mph /  14.5km/h 41% 0.00in /  0mm 260.0 W/m2
12:33 72.1 °F /  22.3 °C 46.4 °F /  8 °C 30.00in /  1015.8hPa NE 2.0mph /  3.2km/h 10.0mph /  16.1km/h 40% 0.00in /  0mm 258.0 W/m2
12:40 71.4 °F /  21.9 °C 45.9 °F /  7.7 °C 29.99in /  1015.5hPa NNE 2.9mph /  4.7km/h 5.0mph /  8km/h 40% 0.00in /  0mm 304.0 W/m2
12:46 71.4 °F /  21.9 °C 45.9 °F /  7.7 °C 29.99in /  1015.5hPa NNE 6.9mph /  11.1km/h 8.0mph /  12.9km/h 40% 0.00in /  0mm 369.0 W/m2
12:52 71.8 °F /  22.1 °C 46.8 °F /  8.2 °C 29.99in /  1015.5hPa NE 4.9mph /  7.9km/h 13.0mph /  20.9km/h 41% 0.00in /  0mm 1027.0 W/m2
12:58 73.0 °F /  22.8 °C 48.0 °F /  8.9 °C 29.98in /  1015.1hPa North 2.9mph /  4.7km/h 10.0mph /  16.1km/h 41% 0.00in /  0mm 1063.0 W/m2
13:04 73.6 °F /  23.1 °C 46.4 °F /  8 °C 29.98in /  1015.1hPa NE 2.0mph /  3.2km/h 10.0mph /  16.1km/h 38% 0.00in /  0mm 383.0 W/m2
13:10 73.2 °F /  22.9 °C 46.0 °F /  7.8 °C 29.98in /  1015.1hPa NNE 6.0mph /  9.7km/h 6.0mph /  9.7km/h 38% 0.00in /  0mm 381.0 W/m2
13:16 73.0 °F /  22.8 °C 46.6 °F /  8.1 °C 29.98in /  1015.1hPa ENE 2.9mph /  4.7km/h 6.0mph /  9.7km/h 39% 0.00in /  0mm 515.0 W/m2
13:23 73.2 °F /  22.9 °C 46.0 °F /  7.8 °C 29.98in /  1015.1hPa East 6.0mph /  9.7km/h 8.0mph /  12.9km/h 38% 0.00in /  0mm 436.0 W/m2
13:29 73.8 °F /  23.2 °C 47.3 °F /  8.5 °C 29.97in /  1014.8hPa ENE 4.9mph /  7.9km/h 10.0mph /  16.1km/h 39% 0.00in /  0mm 1032.0 W/m2
13:35 74.7 °F /  23.7 °C 45.1 °F /  7.3 °C 29.97in /  1014.8hPa East 2.9mph /  4.7km/h 9.0mph /  14.5km/h 35% 0.00in /  0mm 1032.0 W/m2
13:41 75.0 °F /  23.9 °C 45.5 °F /  7.5 °C 29.97in /  1014.8hPa North 4.9mph /  7.9km/h 7.0mph /  11.3km/h 35% 0.00in /  0mm 1032.0 W/m2
13:47 75.0 °F /  23.9 °C 45.5 °F /  7.5 °C 29.97in /  1014.8hPa Calm   5.0mph /  8km/h 35% 0.00in /  0mm 353.0 W/m2
13:53 74.7 °F /  23.7 °C 45.9 °F /  7.7 °C 29.97in /  1014.8hPa NE 4.0mph /  6.4km/h 6.0mph /  9.7km/h 36% 0.00in /  0mm 367.0 W/m2
13:59 74.1 °F /  23.4 °C 46.2 °F /  7.9 °C 29.97in /  1014.8hPa NE 4.9mph /  7.9km/h 10.0mph /  16.1km/h 37% 0.00in /  0mm 276.0 W/m2
14:06 73.6 °F /  23.1 °C 45.7 °F /  7.6 °C 29.96in /  1014.4hPa ENE 2.0mph /  3.2km/h 8.0mph /  12.9km/h 37% 0.00in /  0mm 239.0 W/m2
14:12 73.2 °F /  22.9 °C 46.0 °F /  7.8 °C 29.97in /  1014.8hPa ENE 2.9mph /  4.7km/h 9.0mph /  14.5km/h 38% 0.00in /  0mm 204.0 W/m2
14:18 72.9 °F /  22.7 °C 45.7 °F /  7.6 °C 29.97in /  1014.8hPa NE 6.9mph /  11.1km/h 9.0mph /  14.5km/h 38% 0.00in /  0mm 185.0 W/m2
14:24 72.3 °F /  22.4 °C 46.0 °F /  7.8 °C 29.96in /  1014.4hPa Calm   5.0mph /  8km/h 39% 0.00in /  0mm 185.0 W/m2
14:40 73.2 °F /  22.9 °C 45.3 °F /  7.4 °C 29.96in /  1014.4hPa SSE 4.0mph /  6.4km/h 5.0mph /  8km/h 37% 0.00in /  0mm 229.0 W/m2
14:47 73.8 °F /  23.2 °C 45.9 °F /  7.7 °C 29.96in /  1014.4hPa NNE 2.9mph /  4.7km/h 5.0mph /  8km/h 37% 0.00in /  0mm 227.0 W/m2
14:53 73.8 °F /  23.2 °C 45.9 °F /  7.7 °C 29.96in /  1014.4hPa NNW 4.0mph /  6.4km/h 5.0mph /  8km/h 37% 0.00in /  0mm 610.0 W/m2
14:59 74.1 °F /  23.4 °C 46.9 °F /  8.3 °C 29.96in /  1014.4hPa SSE 2.0mph /  3.2km/h 9.0mph /  14.5km/h 38% 0.00in /  0mm 557.0 W/m2
15:05 74.7 °F /  23.7 °C 47.3 °F /  8.5 °C 29.96in /  1014.4hPa ESE 4.0mph /  6.4km/h 9.0mph /  14.5km/h 38% 0.00in /  0mm 598.0 W/m2
15:11 74.8 °F /  23.8 °C 46.8 °F /  8.2 °C 29.96in /  1014.4hPa SSE 2.0mph /  3.2km/h 5.0mph /  8km/h 37% 0.00in /  0mm 213.0 W/m2
15:17 74.5 °F /  23.6 °C 45.9 °F /  7.7 °C 29.96in /  1014.4hPa Calm   5.0mph /  8km/h 36% 0.00in /  0mm 236.0 W/m2
15:23 73.8 °F /  23.2 °C 45.9 °F /  7.7 °C 29.96in /  1014.4hPa Calm   7.0mph /  11.3km/h 37% 0.00in /  0mm 218.0 W/m2
15:29 73.2 °F /  22.9 °C 45.3 °F /  7.4 °C 29.96in /  1014.4hPa East 4.9mph /  7.9km/h 5.0mph /  8km/h 37% 0.00in /  0mm 197.0 W/m2
15:41 72.7 °F /  22.6 °C 45.7 °F /  7.6 °C 29.96in /  1014.4hPa Calm   3.0mph /  4.8km/h 38% 0.00in /  0mm 149.0 W/m2
15:48 72.3 °F /  22.4 °C 46.6 °F /  8.1 °C 29.96in /  1014.4hPa ESE 2.0mph /  3.2km/h 8.0mph /  12.9km/h 40% 0.00in /  0mm 132.0 W/m2
15:54 72.0 °F /  22.2 °C 46.4 °F /  8 °C 29.96in /  1014.4hPa SE 2.9mph /  4.7km/h 7.0mph /  11.3km/h 40% 0.00in /  0mm 130.0 W/m2
16:00 71.8 °F /  22.1 °C 46.2 °F /  7.9 °C 29.96in /  1014.4hPa NE 6.9mph /  11.1km/h 7.0mph /  11.3km/h 40% 0.00in /  0mm 127.0 W/m2
16:06 71.4 °F /  21.9 °C 46.6 °F /  8.1 °C 29.96in /  1014.4hPa ESE 4.0mph /  6.4km/h 6.0mph /  9.7km/h 41% 0.00in /  0mm 116.0 W/m2
16:12 71.2 °F /  21.8 °C 46.4 °F /  8 °C 29.96in /  1014.4hPa East 2.9mph /  4.7km/h 8.0mph /  12.9km/h 41% 0.00in /  0mm 104.0 W/m2
16:18 71.1 °F /  21.7 °C 46.2 °F /  7.9 °C 29.96in /  1014.4hPa Calm   4.0mph /  6.4km/h 41% 0.00in /  0mm 95.0 W/m2
16:24 71.1 °F /  21.7 °C 46.8 °F /  8.2 °C 29.97in /  1014.8hPa Calm   1.0mph /  1.6km/h 42% 0.00in /  0mm 74.0 W/m2
16:31 70.9 °F /  21.6 °C 46.6 °F /  8.1 °C 29.97in /  1014.8hPa NNE 2.0mph /  3.2km/h 4.0mph /  6.4km/h 42% 0.00in /  0mm 74.0 W/m2
16:37 70.5 °F /  21.4 °C 46.4 °F /  8 °C 29.97in /  1014.8hPa East 4.9mph /  7.9km/h 5.0mph /  8km/h 42% 0.00in /  0mm 67.0 W/m2
16:43 70.3 °F /  21.3 °C 46.8 °F /  8.2 °C 29.98in /  1015.1hPa NE 0.9mph /  1.4km/h 1.0mph /  1.6km/h 43% 0.00in /  0mm 58.0 W/m2
16:49 70.2 °F /  21.2 °C 46.6 °F /  8.1 °C 29.98in /  1015.1hPa Calm   2.0mph /  3.2km/h 43% 0.00in /  0mm 42.0 W/m2
16:55 70.0 °F /  21.1 °C 46.4 °F /  8 °C 29.98in /  1015.1hPa Calm   1.0mph /  1.6km/h 43% 0.00in /  0mm 28.0 W/m2
17:01 69.6 °F /  20.9 °C 46.2 °F /  7.9 °C 29.98in /  1015.1hPa Calm   4.0mph /  6.4km/h 43% 0.00in /  0mm 23.0 W/m2
17:09 69.4 °F /  20.8 °C 46.6 °F /  8.1 °C 29.98in /  1015.1hPa Calm   1.0mph /  1.6km/h 44% 0.00in /  0mm 12.0 W/m2
17:16 69.3 °F /  20.7 °C 46.9 °F /  8.3 °C 29.98in /  1015.1hPa Calm     45% 0.00in /  0mm 7.0 W/m2
17:22 69.1 °F /  20.6 °C 47.5 °F /  8.6 °C 29.98in /  1015.1hPa Calm     46% 0.00in /  0mm 0.0 W/m2
17:28 68.5 °F /  20.3 °C 46.9 °F /  8.3 °C 29.98in /  1015.1hPa Calm   1.0mph /  1.6km/h 46% 0.00in /  0mm 0.0 W/m2
17:34 68.4 °F /  20.2 °C 46.8 °F /  8.2 °C 29.99in /  1015.5hPa Calm   1.0mph /  1.6km/h 46% 0.00in /  0mm 0.0 W/m2
17:41 67.8 °F /  19.9 °C 46.9 °F /  8.3 °C 29.99in /  1015.5hPa East 0.9mph /  1.4km/h 1.0mph /  1.6km/h 47% 0.00in /  0mm 0.0 W/m2
17:46 67.6 °F /  19.8 °C 47.3 °F /  8.5 °C 29.99in /  1015.5hPa Calm     48% 0.00in /  0mm 0.0 W/m2
17:53 67.3 °F /  19.6 °C 47.5 °F /  8.6 °C 29.99in /  1015.5hPa Calm     49% 0.00in /  0mm 0.0 W/m2
17:59 66.9 °F /  19.4 °C 47.1 °F /  8.4 °C 29.99in /  1015.5hPa Calm     49% 0.00in /  0mm 0.0 W/m2
18:06 66.4 °F /  19.1 °C 47.1 °F /  8.4 °C 30.00in /  1015.8hPa Calm     50% 0.00in /  0mm 0.0 W/m2
18:12 66.0 °F /  18.9 °C 47.8 °F /  8.8 °C 29.99in /  1015.5hPa Calm     52% 0.00in /  0mm 0.0 W/m2
18:17 65.7 °F /  18.7 °C 47.5 °F /  8.6 °C 29.99in /  1015.5hPa Calm     52% 0.00in /  0mm 0.0 W/m2
18:23 65.1 °F /  18.4 °C 47.5 °F /  8.6 °C 30.00in /  1015.8hPa Calm     53% 0.00in /  0mm 0.0 W/m2
18:29 64.8 °F /  18.2 °C 47.3 °F /  8.5 °C 30.00in /  1015.8hPa Calm     53% 0.00in /  0mm 0.0 W/m2
18:35 64.2 °F /  17.9 °C 47.3 °F /  8.5 °C 30.00in /  1015.8hPa Calm     54% 0.00in /  0mm 0.0 W/m2
18:39 64.0 °F /  17.8 °C 47.5 °F /  8.6 °C 30.00in /  1015.8hPa Calm   1.0mph /  1.6km/h 55% 0.00in /  0mm 0.0 W/m2
18:46 63.7 °F /  17.6 °C 47.3 °F /  8.5 °C 30.01in /  1016.1hPa Calm     55% 0.00in /  0mm 0.0 W/m2
18:52 63.3 °F /  17.4 °C 47.3 °F /  8.5 °C 30.01in /  1016.1hPa Calm     56% 0.00in /  0mm 0.0 W/m2
18:58 63.0 °F /  17.2 °C 46.9 °F /  8.3 °C 30.01in /  1016.1hPa Calm   1.0mph /  1.6km/h 56% 0.00in /  0mm 0.0 W/m2
19:04 62.8 °F /  17.1 °C 47.3 °F /  8.5 °C 30.01in /  1016.1hPa Calm     57% 0.00in /  0mm 0.0 W/m2
19:10 62.2 °F /  16.8 °C 47.3 °F /  8.5 °C 30.02in /  1016.5hPa Calm   1.0mph /  1.6km/h 58% 0.00in /  0mm 0.0 W/m2
19:16 62.1 °F /  16.7 °C 47.1 °F /  8.4 °C 30.02in /  1016.5hPa Calm   1.0mph /  1.6km/h 58% 0.00in /  0mm 0.0 W/m2
19:22 61.9 °F /  16.6 °C 46.9 °F /  8.3 °C 30.02in /  1016.5hPa Calm   1.0mph /  1.6km/h 58% 0.00in /  0mm 0.0 W/m2
19:29 61.9 °F /  16.6 °C 47.5 °F /  8.6 °C 30.02in /  1016.5hPa Calm   2.0mph /  3.2km/h 59% 0.00in /  0mm 0.0 W/m2
19:35 61.7 °F /  16.5 °C 47.3 °F /  8.5 °C 30.02in /  1016.5hPa Calm   1.0mph /  1.6km/h 59% 0.00in /  0mm 0.0 W/m2
19:41 61.5 °F /  16.4 °C 47.1 °F /  8.4 °C 30.03in /  1016.8hPa Calm   1.0mph /  1.6km/h 59% 0.00in /  0mm 0.0 W/m2
19:47 61.3 °F /  16.3 °C 47.3 °F /  8.5 °C 30.03in /  1016.8hPa Calm   3.0mph /  4.8km/h 60% 0.00in /  0mm 0.0 W/m2
19:53 61.2 °F /  16.2 °C 47.7 °F /  8.7 °C 30.03in /  1016.8hPa ESE 0.9mph /  1.4km/h 2.0mph /  3.2km/h 61% 0.00in /  0mm 0.0 W/m2
19:59 61.0 °F /  16.1 °C 47.5 °F /  8.6 °C 30.03in /  1016.8hPa Calm   1.0mph /  1.6km/h 61% 0.00in /  0mm 0.0 W/m2
20:05 60.8 °F /  16 °C 47.3 °F /  8.5 °C 30.03in /  1016.8hPa Calm     61% 0.00in /  0mm 0.0 W/m2
20:12 60.6 °F /  15.9 °C 47.5 °F /  8.6 °C 30.03in /  1016.8hPa Calm     62% 0.00in /  0mm 0.0 W/m2
20:14 60.6 °F /  15.9 °C 47.5 °F /  8.6 °C 30.03in /  1016.8hPa Calm   1.0mph /  1.6km/h 62% 0.00in /  0mm 0.0 W/m2
20:20 60.4 °F /  15.8 °C 47.3 °F /  8.5 °C 30.03in /  1016.8hPa Calm     62% 0.00in /  0mm 0.0 W/m2
20:26 60.3 °F /  15.7 °C 46.8 °F /  8.2 °C 30.03in /  1016.8hPa Calm     61% 0.00in /  0mm 0.0 W/m2
20:32 60.3 °F /  15.7 °C 46.8 °F /  8.2 °C 30.03in /  1016.8hPa Calm   4.0mph /  6.4km/h 61% 0.00in /  0mm 0.0 W/m2
20:38 60.4 °F /  15.8 °C 46.9 °F /  8.3 °C 30.03in /  1016.8hPa Calm   3.0mph /  4.8km/h 61% 0.00in /  0mm 0.0 W/m2
20:44 60.6 °F /  15.9 °C 47.1 °F /  8.4 °C 30.03in /  1016.8hPa Calm   3.0mph /  4.8km/h 61% 0.00in /  0mm 0.0 W/m2
20:51 60.6 °F /  15.9 °C 47.1 °F /  8.4 °C 30.03in /  1016.8hPa Calm     61% 0.00in /  0mm 0.0 W/m2
20:55 60.4 °F /  15.8 °C 47.3 °F /  8.5 °C 30.03in /  1016.8hPa Calm     62% 0.00in /  0mm 0.0 W/m2
21:01 60.4 °F /  15.8 °C 47.3 °F /  8.5 °C 30.03in /  1016.8hPa Calm   1.0mph /  1.6km/h 62% 0.00in /  0mm 0.0 W/m2
21:03 60.3 °F /  15.7 °C 47.1 °F /  8.4 °C 30.03in /  1016.8hPa Calm   2.0mph /  3.2km/h 62% 0.00in /  0mm 0.0 W/m2
21:09 60.1 °F /  15.6 °C 46.9 °F /  8.3 °C 30.03in /  1016.8hPa Calm     62% 0.00in /  0mm 0.0 W/m2
21:15 59.7 °F /  15.4 °C 47.1 °F /  8.4 °C 30.03in /  1016.8hPa Calm   1.0mph /  1.6km/h 63% 0.00in /  0mm 0.0 W/m2
21:21 59.7 °F /  15.4 °C 47.1 °F /  8.4 °C 30.03in /  1016.8hPa Calm   3.0mph /  4.8km/h 63% 0.00in /  0mm 0.0 W/m2
21:27 59.5 °F /  15.3 °C 46.9 °F /  8.3 °C 30.03in /  1016.8hPa Calm   2.0mph /  3.2km/h 63% 0.00in /  0mm 0.0 W/m2
21:33 59.4 °F /  15.2 °C 46.8 °F /  8.2 °C 30.03in /  1016.8hPa Calm     63% 0.00in /  0mm 0.0 W/m2
21:40 59.2 °F /  15.1 °C 46.9 °F /  8.3 °C 30.03in /  1016.8hPa Calm     64% 0.00in /  0mm 0.0 W/m2
21:46 59.0 °F /  15 °C 46.8 °F /  8.2 °C 30.03in /  1016.8hPa Calm     64% 0.00in /  0mm 0.0 W/m2
21:52 58.6 °F /  14.8 °C 46.9 °F /  8.3 °C 30.03in /  1016.8hPa Calm     65% 0.00in /  0mm 0.0 W/m2
21:58 58.5 °F /  14.7 °C 46.8 °F /  8.2 °C 30.03in /  1016.8hPa Calm     65% 0.00in /  0mm 0.0 W/m2
22:04 58.3 °F /  14.6 °C 46.9 °F /  8.3 °C 30.03in /  1016.8hPa Calm     66% 0.00in /  0mm 0.0 W/m2
22:10 57.9 °F /  14.4 °C 46.9 °F /  8.3 °C 30.03in /  1016.8hPa Calm     67% 0.00in /  0mm 0.0 W/m2
22:16 57.9 °F /  14.4 °C 46.9 °F /  8.3 °C 30.03in /  1016.8hPa Calm   2.0mph /  3.2km/h 67% 0.00in /  0mm 0.0 W/m2
22:23 57.9 °F /  14.4 °C 47.5 °F /  8.6 °C 30.03in /  1016.8hPa Calm   1.0mph /  1.6km/h 68% 0.00in /  0mm 0.0 W/m2
22:29 57.9 °F /  14.4 °C 47.5 °F /  8.6 °C 30.03in /  1016.8hPa Calm     68% 0.00in /  0mm 0.0 W/m2
22:35 57.7 °F /  14.3 °C 47.3 °F /  8.5 °C 30.03in /  1016.8hPa Calm   3.0mph /  4.8km/h 68% 0.00in /  0mm 0.0 W/m2
22:41 57.7 °F /  14.3 °C 47.3 °F /  8.5 °C 30.02in /  1016.5hPa East 0.9mph /  1.4km/h 3.0mph /  4.8km/h 68% 0.00in /  0mm 0.0 W/m2
22:47 57.7 °F /  14.3 °C 47.3 °F /  8.5 °C 30.02in /  1016.5hPa East 2.9mph /  4.7km/h 3.0mph /  4.8km/h 68% 0.00in /  0mm 0.0 W/m2
22:53 57.6 °F /  14.2 °C 47.5 °F /  8.6 °C 30.02in /  1016.5hPa East 2.0mph /  3.2km/h 3.0mph /  4.8km/h 69% 0.00in /  0mm 0.0 W/m2
22:59 57.6 °F /  14.2 °C 47.5 °F /  8.6 °C 30.02in /  1016.5hPa ENE 0.9mph /  1.4km/h 2.0mph /  3.2km/h 69% 0.00in /  0mm 0.0 W/m2
23:05 57.4 °F /  14.1 °C 47.3 °F /  8.5 °C 30.02in /  1016.5hPa Calm   1.0mph /  1.6km/h 69% 0.00in /  0mm 0.0 W/m2
23:11 57.4 °F /  14.1 °C 47.7 °F /  8.7 °C 30.02in /  1016.5hPa ENE 0.9mph /  1.4km/h 1.0mph /  1.6km/h 70% 0.00in /  0mm 0.0 W/m2
23:15 57.4 °F /  14.1 °C 47.7 °F /  8.7 °C 30.02in /  1016.5hPa Calm   3.0mph /  4.8km/h 70% 0.00in /  0mm 0.0 W/m2
23:21 57.0 °F /  13.9 °C 47.3 °F /  8.5 °C 30.02in /  1016.5hPa Calm     70% 0.00in /  0mm 0.0 W/m2
23:27 57.0 °F /  13.9 °C 47.3 °F /  8.5 °C 30.02in /  1016.5hPa Calm     70% 0.00in /  0mm 0.0 W/m2
23:33 56.8 °F /  13.8 °C 47.5 °F /  8.6 °C 30.02in /  1016.5hPa Calm   1.0mph /  1.6km/h 71% 0.00in /  0mm 0.0 W/m2
23:39 56.7 °F /  13.7 °C 47.3 °F /  8.5 °C 30.02in /  1016.5hPa ESE 0.9mph /  1.4km/h 2.0mph /  3.2km/h 71% 0.00in /  0mm 0.0 W/m2
23:45 56.7 °F /  13.7 °C 47.3 °F /  8.5 °C 30.02in /  1016.5hPa Calm   1.0mph /  1.6km/h 71% 0.00in /  0mm 0.0 W/m2
23:51 56.5 °F /  13.6 °C 47.5 °F /  8.6 °C 30.02in /  1016.5hPa Calm   1.0mph /  1.6km/h 72% 0.00in /  0mm 0.0 W/m2
23:55 56.5 °F /  13.6 °C 47.5 °F /  8.6 °C 30.01in /  1016.1hPa Calm   1.0mph /  1.6km/h 72% 0.00in /  0mm 0.0 W/m2
Olympia, Windhoek, Namibia
Compliments of Weather Underground - 3 mb